Time;durP1;ratioP1;P1;durP2;ratioP2;P2;SDS_P1;SDS_P2;PMS_P1;PMS_P2;Temp;Humidity;BMP_temperature;BMP_pressure;BME280_temperature;BME280_humidity;BME280_pressure;Samples;Min_cycle;Max_cycle;Signal;HPM_P1;HPM_P2
2022/11/13 00:01:34;;;;;;;21.98;13.07;;;;;;;12.50;100.00;102225.06;2104329;28;20094;-71
2022/11/13 00:03:15;;;;;;;66.30;47.35;;;;;;;12.50;100.00;102224.19;2103722;28;20138;-72
2022/11/13 00:04:56;;;;;;;33.75;21.58;;;;;;;12.52;100.00;102219.84;2106872;28;20092;-71
2022/11/13 00:06:36;;;;;;;33.03;21.58;;;;;;;12.55;100.00;102220.81;2108321;28;20365;-71
2022/11/13 00:08:18;;;;;;;26.77;17.92;;;;;;;12.59;100.00;102222.72;2107258;28;20549;-71
2022/11/13 00:09:58;;;;;;;28.38;19.23;;;;;;;12.63;100.00;102223.69;2095990;28;20381;-71
2022/11/13 00:11:39;;;;;;;61.65;42.17;;;;;;;12.65;100.00;102227.31;2103599;28;20040;-71
2022/11/13 00:13:20;;;;;;;47.63;30.55;;;;;;;12.66;100.00;102229.09;2095852;28;20052;-72
2022/11/13 00:15:03;;;;;;;28.30;17.10;;;;;;;12.67;100.00;102226.47;2098136;28;20040;-72
2022/11/13 00:16:44;;;;;;;33.33;20.95;;;;;;;12.67;100.00;102229.13;2104166;28;20455;-72
2022/11/13 00:18:23;;;;;;;27.30;17.10;;;;;;;12.67;100.00;102226.47;2103614;28;20415;-72
2022/11/13 00:20:05;;;;;;;38.75;24.25;;;;;;;12.68;100.00;102222.09;2096001;28;20044;-72
2022/11/13 00:21:46;;;;;;;39.90;23.85;;;;;;;12.66;100.00;102224.72;2103266;28;20040;-72
2022/11/13 00:23:27;;;;;;;25.77;16.30;;;;;;;12.63;100.00;102221.94;2103512;28;20055;-72
2022/11/13 00:25:09;;;;;;;23.15;14.48;;;;;;;12.62;100.00;102221.91;2110241;28;20144;-71
2022/11/13 00:26:49;;;;;;;18.88;12.35;;;;;;;12.58;100.00;102222.66;2103031;28;20044;-72
2022/11/13 00:28:29;;;;;;;22.77;14.90;;;;;;;12.54;100.00;102224.31;2111696;28;20040;-71
2022/11/13 00:30:13;;;;;;;25.27;14.98;;;;;;;12.52;100.00;102219.84;2097366;28;20493;-71
2022/11/13 00:31:53;;;;;;;21.40;12.85;;;;;;;12.49;100.00;102220.63;2103648;28;20579;-71
2022/11/13 00:33:35;;;;;;;23.08;12.57;;;;;;;12.46;100.00;102220.53;2102890;28;20480;-71
2022/11/13 00:35:16;;;;;;;20.48;12.30;;;;;;;12.43;100.00;102220.44;2109990;28;20147;-72
2022/11/13 00:36:56;;;;;;;20.35;11.25;;;;;;;12.41;100.00;102219.47;2112458;28;20048;-71
2022/11/13 00:38:37;;;;;;;33.55;19.40;;;;;;;12.39;100.00;102218.56;2103532;28;20198;-72
2022/11/13 00:40:19;;;;;;;23.25;12.82;;;;;;;12.39;100.00;102218.56;2095579;28;20512;-72
2022/11/13 00:41:59;;;;;;;26.33;14.80;;;;;;;12.37;100.00;102215.84;2095404;28;20374;-72
2022/11/13 00:43:41;;;;;;;27.85;17.10;;;;;;;12.38;100.00;102207.06;2095184;28;20503;-72
2022/11/13 00:45:23;;;;;;;36.90;24.17;;;;;;;12.39;100.00;102210.59;2103935;28;20169;-71
2022/11/13 00:47:05;;;;;;;;;;;;;;;12.37;100.00;102212.31;2096133;28;20163;-71
2022/11/13 00:48:47;;;;;;;27.08;17.35;;;;;;;12.41;100.00;102211.53;2104373;28;19927;-72
2022/11/13 00:50:28;;;;;;;24.10;13.15;;;;;;;12.43;100.00;102209.84;2100652;28;20049;-71
2022/11/13 00:52:09;;;;;;;44.13;28.23;;;;;;;12.44;100.00;102214.28;2113922;28;20104;-71
2022/11/13 00:53:50;;;;;;;24.10;13.32;;;;;;;12.45;100.00;102220.50;2113843;28;20372;-71
2022/11/13 00:55:31;;;;;;;31.52;19.10;;;;;;;12.42;100.00;102212.44;2113846;28;20420;-71
2022/11/13 00:57:12;;;;;;;40.88;22.23;;;;;;;12.37;100.00;102212.31;2113932;28;20048;-72
2022/11/13 00:58:52;;;;;;;30.35;17.77;;;;;;;12.36;100.00;102207.84;2113792;28;20134;-72
2022/11/13 01:00:35;;;;;;;28.63;16.25;;;;;;;12.37;100.00;102209.66;2113525;28;20097;-72
2022/11/13 01:02:16;;;;;;;35.88;22.23;;;;;;;12.34;100.00;102207.78;2114088;28;20044;-71
2022/11/13 01:03:57;;;;;;;32.55;19.88;;;;;;;12.33;100.00;102211.31;2113863;28;20048;-71
2022/11/13 01:05:38;;;;;;;24.38;14.60;;;;;;;12.30;100.00;102213.84;2107040;28;20102;-71
2022/11/13 01:07:19;;;;;;;21.90;12.90;;;;;;;12.28;100.00;102204.06;2105712;28;20076;-71
2022/11/13 01:09:00;;;;;;;61.90;38.05;;;;;;;12.26;100.00;102211.06;2097033;28;20095;-71
2022/11/13 01:10:42;;;;;;;30.20;19.02;;;;;;;12.26;100.00;102205.78;2106244;28;20044;-72
2022/11/13 01:12:23;;;;;;;21.55;11.55;;;;;;;12.24;100.00;102207.47;2098060;28;20056;-72
2022/11/13 01:14:04;;;;;;;23.08;14.18;;;;;;;12.21;100.00;102208.25;2113472;28;20055;-71
2022/11/13 01:15:46;;;;;;;34.65;19.73;;;;;;;12.21;100.00;102210.00;2103197;28;20060;-71
2022/11/13 01:17:27;;;;;;;23.02;14.23;;;;;;;12.18;100.00;102204.63;2113760;28;20056;-72
2022/11/13 01:19:08;;;;;;;76.47;47.80;;;;;;;12.16;100.00;102206.31;2096609;28;20671;-71
2022/11/13 01:20:49;;;;;;;27.63;15.20;;;;;;;12.14;100.00;102211.56;2112284;28;20071;-71
2022/11/13 01:22:31;;;;;;;67.15;40.60;;;;;;;12.12;100.00;102207.97;2105188;28;20519;-72
2022/11/13 01:24:12;;;;;;;23.33;14.20;;;;;;;12.12;100.00;102212.38;2111994;28;20555;-71
2022/11/13 01:25:53;;;;;;;29.80;17.00;;;;;;;12.12;100.00;102215.00;2099490;28;20153;-71
2022/11/13 01:27:36;;;;;;;39.92;24.15;;;;;;;12.12;100.00;102217.66;2104828;28;20052;-71
2022/11/13 01:29:17;;;;;;;23.90;14.93;;;;;;;12.12;100.00;102212.38;2105222;28;20617;-72
2022/11/13 01:31:00;;;;;;;27.30;16.58;;;;;;;12.15;100.00;102216.00;2096897;28;20443;-71
2022/11/13 01:32:40;;;;;;;;;;;;;;;12.13;100.00;102214.16;2102521;28;20044;-71
2022/11/13 01:34:21;;;;;;;26.55;15.32;;;;;;;12.14;100.00;102208.03;2104965;28;19920;-71
2022/11/13 01:36:04;;;;;;;64.45;37.10;;;;;;;12.15;100.00;102213.34;2103585;28;20048;-71
2022/11/13 01:37:45;;;;;;;40.25;24.92;;;;;;;12.16;100.00;102219.53;2113113;28;20079;-72
2022/11/13 01:39:25;;;;;;;28.48;15.10;;;;;;;12.17;100.00;102216.06;2104897;28;20369;-71
2022/11/13 01:41:08;;;;;;;23.65;14.05;;;;;;;12.18;100.00;102216.13;2113599;28;20138;-71
2022/11/13 01:42:50;;;;;;;23.13;13.68;;;;;;;12.18;100.00;102210.81;2096841;28;20139;-71
2022/11/13 01:44:48;;;;;;;28.98;15.73;;;;;;;12.17;100.00;102211.66;2105445;28;20101;-72
2022/11/13 01:46:33;;;;;;;36.10;22.30;;;;;;;12.17;100.00;102213.41;2113586;28;20075;-71
2022/11/13 01:48:13;;;;;;;31.63;16.92;;;;;;;12.16;100.00;102219.53;2105170;28;20040;-72
2022/11/13 01:49:57;;;;;;;20.80;12.35;;;;;;;12.14;100.00;102218.63;2113042;28;20485;-71
2022/11/13 01:51:41;;;;;;;32.28;20.10;;;;;;;12.15;100.00;102223.94;2096873;28;20044;-71
2022/11/13 01:53:22;;;;;;;50.97;30.85;;;;;;;12.13;100.00;102215.06;2104851;28;20131;-71
2022/11/13 01:55:09;;;;;;;26.33;15.82;;;;;;;12.16;100.00;102232.78;2113123;28;20158;-71
2022/11/13 01:56:50;;;;;;;61.08;37.75;;;;;;;12.14;100.00;102226.56;2104911;28;20154;-72
2022/11/13 01:58:31;;;;;;;45.42;25.92;;;;;;;12.13;100.00;102223.00;2110039;28;20043;-71
2022/11/13 02:00:13;;;;;;;31.88;18.13;;;;;;;12.14;100.00;102231.84;2113005;28;20644;-71
2022/11/13 02:01:56;;;;;;;44.47;26.02;;;;;;;12.14;100.00;102229.22;2096762;28;20070;-71
2022/11/13 02:03:37;;;;;;;64.30;34.60;;;;;;;12.14;100.00;102231.84;2105592;28;20054;-71
2022/11/13 02:05:18;;;;;;;23.35;12.73;;;;;;;12.13;100.00;102227.41;2097448;28;20060;-71
2022/11/13 02:07:01;;;;;;;25.30;16.02;;;;;;;12.10;100.00;102230.84;2105174;28;20052;-71
2022/11/13 02:08:44;;;;;;;24.42;15.40;;;;;;;12.08;100.00;102229.88;2103814;28;20514;-71
2022/11/13 02:10:25;;;;;;;;;;;;;;;12.00;100.00;102233.16;2096906;28;20054;-71
2022/11/13 02:12:09;;;;;;;24.67;12.70;;;;;;;11.98;100.00;102231.34;2102160;28;19920;-71
2022/11/13 02:13:51;;;;;;;20.77;11.85;;;;;;;11.96;100.00;102227.72;2101551;28;20048;-71
2022/11/13 02:15:34;;;;;;;66.78;39.03;;;;;;;11.98;100.00;102231.34;2104982;28;20059;-71
2022/11/13 02:17:28;;;;;;;44.65;26.08;;;;;;;12.01;100.00;102227.00;2104555;28;20071;-71
2022/11/13 02:19:15;;;;;;;36.60;23.05;;;;;;;12.01;100.00;102227.00;2112775;28;20623;-71
2022/11/13 02:21:04;;;;;;;24.65;15.73;;;;;;;12.00;100.00;102228.75;2105099;28;20048;-72
2022/11/13 02:22:57;;;;;;;20.05;11.52;;;;;;;11.99;100.00;102229.59;2111550;28;20051;-71
2022/11/13 02:24:41;;;;;;;;;;;;;;;11.91;100.00;102239.91;2096439;28;20052;-71
2022/11/13 02:26:25;;;;;;;38.90;20.67;;;;;;;11.93;100.00;102232.03;2104426;28;19951;-71
2022/11/13 02:28:06;;;;;;;24.95;14.05;;;;;;;11.95;100.00;102225.94;2112919;28;20561;-71
2022/11/13 02:29:47;;;;;;;29.70;17.40;;;;;;;11.94;100.00;102229.47;2104744;28;20048;-71
2022/11/13 02:31:28;;;;;;;29.08;17.58;;;;;;;11.96;100.00;102224.19;2112462;28;20130;-71
2022/11/13 02:33:22;;;;;;;21.13;12.45;;;;;;;12.01;100.00;102225.25;2106159;28;20048;-71
2022/11/13 02:35:02;;;;;;;19.98;11.75;;;;;;;12.05;100.00;102224.50;2096352;28;20052;-72
2022/11/13 02:36:43;;;;;;;23.15;12.27;;;;;;;12.10;100.00;102227.28;2112605;28;20606;-72
2022/11/13 02:38:24;;;;;;;46.47;25.83;;;;;;;12.14;100.00;102227.44;2104411;28;20040;-71
2022/11/13 02:40:08;;;;;;;28.25;17.35;;;;;;;12.21;100.00;102225.88;2104670;28;20516;-71
2022/11/13 02:41:49;;;;;;;28.45;16.48;;;;;;;12.25;100.00;102225.16;2113406;28;20589;-71
2022/11/13 02:43:30;;;;;;;22.98;12.70;;;;;;;12.29;100.00;102221.75;2102829;28;20078;-71
2022/11/13 02:45:11;;;;;;;25.35;16.02;;;;;;;12.31;100.00;102214.75;2112684;28;20085;-71
2022/11/13 02:46:52;;;;;;;26.30;14.82;;;;;;;12.28;100.00;102215.53;2096324;28;20040;-71
2022/11/13 02:48:33;;;;;;;22.95;13.23;;;;;;;12.22;100.00;102210.06;2095984;28;20044;-72
2022/11/13 02:50:15;;;;;;;21.30;12.50;;;;;;;12.17;100.00;102208.13;2100345;28;20093;-71
2022/11/13 02:51:56;;;;;;;19.17;11.57;;;;;;;12.10;100.00;102220.25;2104640;28;20044;-71
2022/11/13 02:53:37;;;;;;;20.60;11.40;;;;;;;12.04;100.00;102216.50;2104577;28;20098;-71
2022/11/13 02:55:20;;;;;;;21.70;12.63;;;;;;;12.03;100.00;102214.69;2104786;28;20052;-71
2022/11/13 02:57:01;;;;;;;18.67;11.88;;;;;;;12.01;100.00;102213.78;2103607;28;20075;-71
2022/11/13 02:58:42;;;;;;;28.10;15.40;;;;;;;11.98;100.00;102215.47;2111787;28;20484;-71
2022/11/13 03:00:22;;;;;;;20.77;12.15;;;;;;;11.97;100.00;102212.75;2110088;28;20567;-71
2022/11/13 03:02:03;;;;;;;48.67;26.45;;;;;;;11.96;100.00;102216.25;2104395;28;20661;-71
2022/11/13 03:03:44;;;;;;;32.08;19.27;;;;;;;11.95;100.00;102215.34;2102561;28;20423;-71
2022/11/13 03:05:25;;;;;;;29.35;17.88;;;;;;;11.96;100.00;102222.44;2104365;28;20168;-71
2022/11/13 03:07:05;;;;;;;21.10;12.10;;;;;;;11.94;100.00;102218.88;2112995;28;20067;-71
2022/11/13 03:08:47;;;;;;;22.73;12.85;;;;;;;11.92;100.00;102215.25;2103755;28;20054;-71
2022/11/13 03:10:29;;;;;;;23.13;12.57;;;;;;;11.91;100.00;102220.50;2095821;28;20483;-71
2022/11/13 03:12:10;;;;;;;39.85;20.02;;;;;;;11.88;100.00;102228.34;2103621;28;20074;-71
2022/11/13 03:13:51;;;;;;;25.83;14.57;;;;;;;11.88;100.00;102229.22;2108615;28;20624;-71
2022/11/13 03:15:32;;;;;;;18.45;12.32;;;;;;;11.86;100.00;102222.09;2096291;28;20047;-72
2022/11/13 03:17:11;;;;;;;22.00;12.85;;;;;;;11.87;100.00;102221.25;2096710;28;20045;-72
2022/11/13 03:18:52;;;;;;;29.92;16.38;;;;;;;11.86;100.00;102220.34;2108148;28;20086;-72
2022/11/13 03:20:35;;;;;;;23.63;13.80;;;;;;;11.86;100.00;102220.34;2095486;28;20060;-72
2022/11/13 03:22:16;;;;;;;26.83;13.18;;;;;;;11.84;100.00;102222.03;2096215;28;20054;-72
2022/11/13 03:23:58;;;;;;;32.65;17.77;;;;;;;11.82;100.00;102223.72;2105077;28;20661;-71
2022/11/13 03:25:40;;;;;;;35.28;19.65;;;;;;;11.81;100.00;102221.94;2101791;28;20078;-72
2022/11/13 03:27:21;;;;;;;29.65;16.10;;;;;;;11.79;100.00;102225.38;2103813;28;20553;-71
2022/11/13 03:29:02;;;;;;;42.42;24.20;;;;;;;11.78;100.00;102224.47;2103492;28;20120;-72
2022/11/13 03:30:43;;;;;;;55.65;29.75;;;;;;;11.76;100.00;102223.50;2097535;28;20040;-72
2022/11/13 03:32:22;;;;;;;45.75;26.15;;;;;;;11.78;100.00;102224.47;2104060;28;20040;-71
2022/11/13 03:34:04;;;;;;;28.15;15.85;;;;;;;11.75;100.00;102221.72;2102603;28;20428;-72
2022/11/13 03:35:43;;;;;;;20.85;12.20;;;;;;;11.74;100.00;102221.69;2104154;28;20052;-72
2022/11/13 03:37:24;;;;;;;54.70;28.38;;;;;;;11.71;100.00;102230.38;2104016;28;20139;-72
2022/11/13 03:39:05;;;;;;;22.27;12.70;;;;;;;11.68;100.00;102232.91;2112524;28;20052;-71
2022/11/13 03:40:47;;;;;;;18.45;11.63;;;;;;;11.69;100.00;102228.50;2104517;28;20075;-72
2022/11/13 03:42:28;;;;;;;23.10;12.80;;;;;;;11.67;100.00;102235.50;2104408;28;20048;-72
2022/11/13 03:44:09;;;;;;;28.92;16.63;;;;;;;11.65;100.00;102232.81;2104077;28;20048;-72
2022/11/13 03:45:50;;;;;;;26.58;14.68;;;;;;;11.66;100.00;102234.59;2103916;28;20059;-72
2022/11/13 03:47:30;;;;;;;29.30;14.98;;;;;;;11.70;100.00;102239.16;2104096;28;20052;-72
2022/11/13 03:49:10;;;;;;;30.75;15.98;;;;;;;11.72;100.00;102228.63;2103626;28;20052;-72
2022/11/13 03:50:55;;;;;;;23.77;14.38;;;;;;;11.75;100.00;102239.38;2103029;28;20143;-72
2022/11/13 03:52:36;;;;;;;26.45;13.27;;;;;;;11.74;100.00;102242.84;2112628;28;20558;-72
2022/11/13 03:54:18;;;;;;;21.88;12.18;;;;;;;11.73;100.00;102236.63;2102917;28;20086;-72
2022/11/13 03:56:00;;;;;;;46.20;25.33;;;;;;;11.73;100.00;102233.97;2103821;28;20052;-72
2022/11/13 03:57:41;;;;;;;30.45;18.80;;;;;;;11.73;100.00;102243.66;2096034;28;20648;-72
2022/11/13 03:59:22;;;;;;;47.97;26.60;;;;;;;11.75;100.00;102248.16;2103235;28;20044;-72
2022/11/13 04:01:03;;;;;;;34.28;19.23;;;;;;;11.75;100.00;102245.53;2102962;28;20216;-72
2022/11/13 04:02:44;;;;;;;34.00;19.13;;;;;;;11.74;100.00;102246.41;2103928;28;20052;-72
2022/11/13 04:04:25;;;;;;;24.02;14.20;;;;;;;11.73;100.00;102247.19;2095559;28;20083;-72
2022/11/13 04:06:06;;;;;;;28.65;16.00;;;;;;;11.75;100.00;102247.31;2102377;28;20052;-72
2022/11/13 04:07:47;;;;;;;50.90;27.35;;;;;;;11.76;100.00;102247.31;2100345;28;20047;-71
2022/11/13 04:09:28;;;;;;;66.10;33.90;;;;;;;11.77;100.00;102250.88;2103840;28;20044;-71
2022/11/13 04:11:11;;;;;;;30.23;18.55;;;;;;;11.76;100.00;102252.63;2095825;28;20045;-72
2022/11/13 04:12:52;;;;;;;40.13;23.48;;;;;;;11.76;100.00;102257.91;2103839;28;20146;-72
2022/11/13 04:14:33;;;;;;;23.45;14.82;;;;;;;11.77;100.00;102259.72;2112120;28;20392;-72
2022/11/13 04:16:13;;;;;;;30.58;17.42;;;;;;;11.75;100.00;102257.88;2103899;28;20139;-72
2022/11/13 04:17:54;;;;;;;22.17;12.85;;;;;;;11.73;100.00;102255.13;2110115;28;20040;-71
2022/11/13 04:19:35;;;;;;;48.85;25.20;;;;;;;11.71;100.00;102263.84;2101902;28;20063;-72
2022/11/13 04:21:16;;;;;;;28.80;15.60;;;;;;;11.71;100.00;102259.47;2111358;28;20056;-72
2022/11/13 04:22:56;;;;;;;98.72;50.17;;;;;;;11.72;100.00;102263.91;2104582;28;20051;-72
2022/11/13 04:24:38;;;;;;;38.63;19.70;;;;;;;11.74;100.00;102261.38;2107909;28;20496;-73
2022/11/13 04:26:20;;;;;;;28.58;15.10;;;;;;;11.76;100.00;102263.19;2105718;28;20488;-72
2022/11/13 04:28:01;;;;;;;;;;;;;;;11.69;100.00;102269.09;2106127;28;20040;-71
2022/11/13 04:29:42;;;;;;;35.90;18.70;;;;;;;11.71;100.00;102263.84;2105196;28;19920;-72
2022/11/13 04:31:22;;;;;;;53.55;30.15;;;;;;;11.70;100.00;102264.69;2113687;28;20086;-71
2022/11/13 04:33:03;;;;;;;102.00;51.55;;;;;;;11.71;100.00;102261.22;2105837;28;20044;-72
2022/11/13 04:34:44;;;;;;;49.03;29.23;;;;;;;11.73;100.00;102267.47;2110984;28;20059;-72
2022/11/13 04:36:25;;;;;;;71.70;38.35;;;;;;;11.72;100.00;102269.22;2105669;28;20056;-72
2022/11/13 04:38:05;;;;;;;43.22;24.20;;;;;;;11.72;100.00;102278.88;2105194;28;20048;-72
2022/11/13 04:39:46;;;;;;;32.67;17.40;;;;;;;11.71;100.00;102277.97;2105781;28;20540;-72
2022/11/13 04:43:28;;;;;;;25.60;13.63;;;;;;;11.75;100.00;102271.97;2106258;28;20052;-72
2022/11/13 04:45:09;;;;;;;52.88;29.10;;;;;;;11.79;100.00;102275.66;2113743;28;20050;-72
2022/11/13 04:46:50;;;;;;;76.43;39.70;;;;;;;11.83;100.00;102286.38;2114125;28;20055;-72
2022/11/13 04:48:31;;;;;;;172.90;94.15;;;;;;;11.85;100.00;102286.44;2097794;28;20052;-72
2022/11/13 04:50:12;;;;;;;29.00;17.02;;;;;;;11.87;100.00;102284.75;2113552;28;20079;-72
2022/11/13 04:51:53;;;;;;;70.28;38.92;;;;;;;11.87;100.00;102293.59;2097111;28;20059;-71
2022/11/13 04:53:34;;;;;;;47.88;25.83;;;;;;;11.87;100.00;102290.97;2099158;28;20059;-71
2022/11/13 04:55:15;;;;;;;30.27;16.95;;;;;;;11.88;100.00;102298.03;2105446;28;20441;-71
2022/11/13 04:56:58;;;;;;;34.47;18.33;;;;;;;11.86;100.00;102294.44;2105012;28;20148;-72
2022/11/13 04:58:38;;;;;;;;;;;;;;;11.78;100.00;102295.91;2105283;28;20089;-71
2022/11/13 05:00:20;;;;;;;25.55;13.80;;;;;;;11.78;100.00;102295.00;2110941;28;19920;-72
2022/11/13 05:02:00;;;;;;;25.10;13.68;;;;;;;11.82;100.00;102294.25;2111801;28;20071;-72
2022/11/13 05:03:40;;;;;;;20.55;12.43;;;;;;;11.83;100.00;102294.31;2109801;28;20063;-71
2022/11/13 05:05:21;;;;;;;22.52;13.05;;;;;;;11.87;100.00;102298.00;2104829;28;20130;-72
2022/11/13 05:07:02;;;;;;;25.98;14.07;;;;;;;11.91;100.00;102300.78;2106597;28;20043;-72
2022/11/13 05:08:43;;;;;;;101.13;54.00;;;;;;;11.95;100.00;102300.03;2104164;28;20040;-72
2022/11/13 05:10:23;;;;;;;97.57;53.58;;;;;;;11.97;100.00;102308.03;2096938;28;20135;-72
2022/11/13 05:12:07;;;;;;;30.02;17.50;;;;;;;11.98;100.00;102302.81;2113472;28;20055;-72
2022/11/13 05:13:48;;;;;;;43.35;24.42;;;;;;;11.97;100.00;102303.66;2105262;28;20448;-72
2022/11/13 05:15:29;;;;;;;32.35;17.13;;;;;;;11.97;100.00;102302.75;2104447;28;20048;-71
2022/11/13 05:17:11;;;;;;;140.18;75.95;;;;;;;11.97;100.00;102311.59;2113865;28;20048;-71
2022/11/13 05:18:52;;;;;;;34.50;19.17;;;;;;;11.99;100.00;102316.94;2113856;28;20043;-71
2022/11/13 05:20:33;;;;;;;44.35;25.55;;;;;;;12.00;100.00;102312.53;2113393;28;20044;-71
2022/11/13 05:22:14;;;;;;;22.85;14.23;;;;;;;12.03;100.00;102317.94;2113495;28;20055;-73
2022/11/13 05:23:55;;;;;;;26.63;15.10;;;;;;;12.06;100.00;102320.69;2113249;28;20116;-72
2022/11/13 05:25:36;;;;;;;28.20;14.93;;;;;;;12.09;100.00;102324.34;2113223;28;20075;-72
2022/11/13 05:27:19;;;;;;;33.40;19.20;;;;;;;12.12;100.00;102320.91;2105011;28;20048;-72
2022/11/13 05:29:00;;;;;;;46.20;25.25;;;;;;;12.13;100.00;102320.06;2105126;28;20048;-72
2022/11/13 05:30:41;;;;;;;19.58;13.30;;;;;;;12.15;100.00;102319.25;2106644;28;20564;-71
2022/11/13 05:32:23;;;;;;;25.05;15.90;;;;;;;12.20;100.00;102316.78;2103447;28;20055;-72
2022/11/13 05:34:04;;;;;;;45.38;28.85;;;;;;;12.24;100.00;102326.63;2112866;28;20788;-72
2022/11/13 05:35:45;;;;;;;22.23;13.30;;;;;;;12.28;100.00;102325.84;2113718;28;20138;-71
2022/11/13 05:37:26;;;;;;;29.17;19.02;;;;;;;12.35;100.00;102333.16;2113888;28;20044;-71
2022/11/13 05:39:07;;;;;;;30.13;19.67;;;;;;;12.42;100.00;102331.63;2113661;28;20053;-72
2022/11/13 05:40:47;;;;;;;112.25;71.00;;;;;;;12.54;100.00;102335.56;2113344;28;20058;-72
2022/11/13 05:42:31;;;;;;;126.57;79.78;;;;;;;12.72;100.00;102337.94;2113668;28;20047;-72
2022/11/13 05:44:12;;;;;;;24.38;16.85;;;;;;;12.90;100.00;102338.50;2113733;28;20039;-72
2022/11/13 05:45:59;;;;;;;70.53;42.70;;;;;;;13.07;100.00;102349.63;2112227;28;20043;-72
2022/11/13 05:47:40;;;;;;;28.80;17.95;;;;;;;13.22;100.00;102344.84;2113683;28;20392;-72
2022/11/13 05:49:21;;;;;;;21.10;13.48;;;;;;;13.38;100.00;102352.41;2113327;28;20047;-72
2022/11/13 05:51:03;;;;;;;13.73;9.80;;;;;;;13.54;100.00;102354.66;2112132;28;20043;-72
2022/11/13 05:52:44;;;;;;;15.95;10.85;;;;;;;13.69;100.00;102363.91;2096913;28;20060;-72
2022/11/13 05:54:25;;;;;;;14.95;10.05;;;;;;;13.83;100.00;102363.44;2104787;28;20097;-72
2022/11/13 05:56:08;;;;;;;16.63;9.07;;;;;;;13.97;100.00;102361.19;2113401;28;20381;-72
2022/11/13 05:57:50;;;;;;;14.23;8.90;;;;;;;14.09;100.00;102371.22;2113531;28;20452;-72
2022/11/13 05:59:31;;;;;;;17.55;8.48;;;;;;;14.22;100.00;102368.94;2113419;28;20551;-72
2022/11/13 06:01:15;;;;;;;13.75;8.77;;;;;;;14.35;100.00;102365.75;2107845;28;20067;-72
2022/11/13 06:02:56;;;;;;;12.35;8.43;;;;;;;14.49;100.00;102376.78;2110033;28;20560;-72
2022/11/13 06:04:37;;;;;;;12.32;8.43;;;;;;;14.64;100.00;102368.25;2113492;28;20138;-72
2022/11/13 06:06:20;;;;;;;15.75;8.20;;;;;;;14.81;100.00;102371.34;2104876;28;20078;-72
2022/11/13 06:08:01;;;;;;;10.88;7.18;;;;;;;14.97;100.00;102368.16;2113205;28;20055;-73
2022/11/13 06:09:42;;;;;;;12.13;7.38;;;;;;;15.11;100.00;102364.97;2096438;28;20107;-73
2022/11/13 06:11:24;;;;;;;11.02;7.15;;;;;;;15.26;100.00;102363.53;2096633;28;20421;-73
2022/11/13 06:13:07;;;;;;;12.25;7.15;;;;;;;15.42;100.00;102368.34;2096659;28;20072;-72
2022/11/13 06:14:48;;;;;;;14.52;7.47;;;;;;;15.59;100.00;102360.72;2104703;28;20075;-72
2022/11/13 06:16:34;;;;;;;9.50;6.18;;;;;;;15.76;100.00;102359.28;2107836;28;20139;-73
2022/11/13 06:18:15;;;;;;;12.65;7.32;;;;;;;15.92;100.00;102354.31;2113143;28;20048;-73
2022/11/13 06:19:56;;;;;;;12.65;6.60;;;;;;;16.07;100.00;102345.72;2110379;28;20119;-72
2022/11/13 06:21:39;;;;;;;10.38;6.45;;;;;;;16.22;100.00;102345.06;2111914;28;20078;-73
2022/11/13 06:23:20;;;;;;;10.38;6.82;;;;;;;16.34;100.00;102342.66;2104581;28;20039;-73
2022/11/13 06:25:01;;;;;;;12.07;6.35;;;;;;;16.46;100.00;102345.53;2109986;28;20055;-72
2022/11/13 06:26:42;;;;;;;12.65;6.60;;;;;;;16.57;100.00;102338.59;2104440;28;20052;-73
2022/11/13 06:28:23;;;;;;;10.20;5.97;;;;;;;16.67;100.00;102337.88;2096496;28;20044;-73
2022/11/13 06:30:06;;;;;;;8.57;5.93;;;;;;;16.71;100.00;102339.75;2096110;28;20172;-73
2022/11/13 06:31:47;;;;;;;9.90;6.45;;;;;;;16.76;100.00;102338.91;2105043;28;20377;-73
2022/11/13 06:33:27;;;;;;;10.25;6.50;;;;;;;16.85;100.00;102339.97;2096383;28;20399;-73
2022/11/13 06:35:09;;;;;;;10.70;5.60;;;;;;;16.96;100.00;102343.69;2104647;28;20052;-73
2022/11/13 06:36:50;;;;;;;8.55;5.95;;;;;;;17.12;100.00;102337.72;2105532;28;20052;-73
2022/11/13 06:38:32;;;;;;;10.80;5.85;;;;;;;17.26;100.00;102335.22;2104714;28;20076;-73
2022/11/13 06:40:14;;;;;;;12.52;6.22;;;;;;;17.37;100.00;102330.91;2104914;28;20048;-73
2022/11/13 06:41:55;;;;;;;10.68;5.00;;;;;;;17.50;100.00;102327.53;2104835;28;20498;-72
2022/11/13 06:43:38;;;;;;;8.90;5.38;;;;;;;17.63;100.00;102333.03;2104530;28;20047;-73
2022/11/13 06:45:19;;;;;;;12.82;6.70;;;;;;;17.76;100.00;102332.31;2103685;28;20637;-72
2022/11/13 06:46:59;;;;;;;10.90;5.38;;;;;;;17.90;100.00;102328.00;2096387;28;20427;-72
2022/11/13 06:48:41;;;;;;;11.52;5.78;;;;;;;18.04;100.00;102320.13;2107672;28;20056;-72
2022/11/13 06:50:21;;;;;;;10.07;5.15;;;;;;;18.16;100.00;102323.81;2111319;28;20142;-73
2022/11/13 06:52:02;;;;;;;13.65;6.13;;;;;;;18.28;100.00;102329.28;2104222;28;20036;-73
2022/11/13 06:53:44;;;;;;;11.45;6.07;;;;;;;18.44;100.00;102334.78;2104185;28;20051;-72
2022/11/13 06:55:25;;;;;;;9.95;5.05;;;;;;;18.57;100.00;102320.66;2104518;28;20063;-73
2022/11/13 06:57:06;;;;;;;11.10;5.88;;;;;;;18.70;100.00;102326.13;2111532;28;20156;-73
2022/11/13 06:58:48;;;;;;;9.35;5.50;;;;;;;18.85;100.00;102322.63;2103961;28;20084;-73
2022/11/13 07:00:29;;;;;;;;;;;;;;;18.94;100.00;102317.34;2113286;28;20096;-73
2022/11/13 07:02:11;;;;;;;10.80;5.30;;;;;;;19.09;100.00;102327.25;2104275;28;19924;-72
2022/11/13 07:03:52;;;;;;;;;;;;;;;19.16;100.00;102328.19;2105739;28;20135;-73
2022/11/13 07:05:36;;;;;;;11.07;5.13;;;;;;;19.32;100.00;102322.00;2104607;28;19969;-73
2022/11/13 07:07:18;;;;;;;10.93;5.40;;;;;;;19.45;100.00;102316.69;2104469;28;20090;-73
2022/11/13 07:08:59;;;;;;;10.25;5.25;;;;;;;19.57;100.00;102321.25;2110049;28;20097;-73
2022/11/13 07:10:39;;;;;;;8.45;4.78;;;;;;;19.68;100.00;102316.84;2104287;28;20443;-73
2022/11/13 07:12:20;;;;;;;8.75;5.72;;;;;;;19.84;100.00;102318.66;2104151;28;20483;-73
2022/11/13 07:14:02;;;;;;;9.43;5.03;;;;;;;20.03;100.00;102318.69;2108378;28;20051;-73
2022/11/13 07:15:42;;;;;;;;;;;;;;;20.05;100.00;102315.13;2113327;28;20047;-73
2022/11/13 07:17:23;;;;;;;11.60;5.25;;;;;;;20.18;100.00;102310.66;2112490;28;19924;-73
2022/11/13 07:19:05;;;;;;;11.73;5.18;;;;;;;20.32;100.00;102310.69;2112233;28;20097;-73
2022/11/13 07:20:45;;;;;;;14.05;10.30;;;;;;;20.45;100.00;102308.03;2108024;28;20039;-73
2022/11/13 07:22:28;;;;;;;19.77;11.75;;;;;;;20.58;100.00;102304.44;2110857;28;20047;-73
2022/11/13 07:24:09;;;;;;;17.90;9.38;;;;;;;20.68;100.00;102299.94;2112942;28;20044;-72
2022/11/13 07:25:54;;;;;;;11.25;5.70;;;;;;;20.81;100.00;102298.13;2110240;28;20051;-73
2022/11/13 07:27:35;;;;;;;17.75;8.10;;;;;;;20.94;100.00;102299.88;2104493;28;20071;-73
2022/11/13 07:29:18;;;;;;;12.32;6.15;;;;;;;21.05;100.00;102299.00;2103325;28;20048;-73
2022/11/13 07:31:00;;;;;;;10.75;6.10;;;;;;;21.16;100.00;102298.97;2104508;28;20083;-73
2022/11/13 07:32:40;;;;;;;12.95;6.13;;;;;;;21.18;100.00;102290.91;2112840;28;20342;-73
2022/11/13 07:34:21;;;;;;;12.90;6.72;;;;;;;21.24;100.00;102297.16;2104491;28;20070;-74
2022/11/13 07:36:02;;;;;;;11.88;5.60;;;;;;;21.33;100.00;102294.41;2112787;28;20592;-74
2022/11/13 07:37:43;;;;;;;13.75;7.07;;;;;;;21.46;100.00;102304.22;2104335;28;20424;-73
2022/11/13 07:39:24;;;;;;;9.40;5.18;;;;;;;21.59;100.00;102298.81;2112776;28;20048;-74
2022/11/13 07:41:05;;;;;;;10.05;4.80;;;;;;;21.70;100.00;102292.47;2104404;28;20573;-73
2022/11/13 07:42:45;;;;;;;9.60;4.75;;;;;;;21.79;100.00;102291.53;2112758;28;20756;-73